sensor_id;sensor_type;location;lat;lon;timestamp;temperature;humidity
26623;DHT22;14254;50.968;5.366;2023-06-19T00:01:48;22.00;99.90
26623;DHT22;14254;50.968;5.366;2023-06-19T00:04:13;21.80;99.90
26623;DHT22;14254;50.968;5.366;2023-06-19T00:06:39;21.70;99.90
26623;DHT22;14254;50.968;5.366;2023-06-19T00:09:06;21.70;99.90
26623;DHT22;14254;50.968;5.366;2023-06-19T00:11:32;21.70;99.90
26623;DHT22;14254;50.968;5.366;2023-06-19T00:13:57;21.80;99.90
26623;DHT22;14254;50.968;5.366;2023-06-19T00:16:23;21.80;99.90
26623;DHT22;14254;50.968;5.366;2023-06-19T00:18:50;21.90;99.90
26623;DHT22;14254;50.968;5.366;2023-06-19T00:21:17;22.00;99.90
26623;DHT22;14254;50.968;5.366;2023-06-19T00:23:43;21.90;99.90
26623;DHT22;14254;50.968;5.366;2023-06-19T00:26:08;22.10;99.90
26623;DHT22;14254;50.968;5.366;2023-06-19T00:28:34;22.10;99.90
26623;DHT22;14254;50.968;5.366;2023-06-19T00:31:00;22.00;99.90
26623;DHT22;14254;50.968;5.366;2023-06-19T00:33:25;22.10;99.90
26623;DHT22;14254;50.968;5.366;2023-06-19T00:35:51;22.00;99.90
26623;DHT22;14254;50.968;5.366;2023-06-19T00:38:17;21.90;99.90
26623;DHT22;14254;50.968;5.366;2023-06-19T00:40:43;21.90;99.90
26623;DHT22;14254;50.968;5.366;2023-06-19T00:43:09;21.90;99.90
26623;DHT22;14254;50.968;5.366;2023-06-19T00:45:36;21.90;99.90
26623;DHT22;14254;50.968;5.366;2023-06-19T00:48:01;21.90;99.90
26623;DHT22;14254;50.968;5.366;2023-06-19T00:50:28;21.80;99.90
26623;DHT22;14254;50.968;5.366;2023-06-19T00:52:55;21.80;99.90
26623;DHT22;14254;50.968;5.366;2023-06-19T00:55:22;21.90;99.90
26623;DHT22;14254;50.968;5.366;2023-06-19T00:57:48;21.80;99.90
26623;DHT22;14254;50.968;5.366;2023-06-19T01:00:14;21.90;99.90
26623;DHT22;14254;50.968;5.366;2023-06-19T01:02:40;21.80;99.90
26623;DHT22;14254;50.968;5.366;2023-06-19T01:05:06;21.70;99.90
26623;DHT22;14254;50.968;5.366;2023-06-19T01:10:03;21.70;99.90
26623;DHT22;14254;50.968;5.366;2023-06-19T01:12:39;21.70;99.90
26623;DHT22;14254;50.968;5.366;2023-06-19T01:15:08;21.70;99.90
26623;DHT22;14254;50.968;5.366;2023-06-19T01:17:35;21.70;99.90
26623;DHT22;14254;50.968;5.366;2023-06-19T01:20:02;21.60;99.90
26623;DHT22;14254;50.968;5.366;2023-06-19T01:22:32;21.40;99.90
26623;DHT22;14254;50.968;5.366;2023-06-19T01:24:58;21.40;99.90
26623;DHT22;14254;50.968;5.366;2023-06-19T01:27:25;21.40;99.90
26623;DHT22;14254;50.968;5.366;2023-06-19T01:29:52;21.30;99.90
26623;DHT22;14254;50.968;5.366;2023-06-19T01:32:25;21.30;99.90
26623;DHT22;14254;50.968;5.366;2023-06-19T01:34:54;21.30;99.90
26623;DHT22;14254;50.968;5.366;2023-06-19T01:37:24;21.20;99.90
26623;DHT22;14254;50.968;5.366;2023-06-19T01:39:53;21.10;99.90
26623;DHT22;14254;50.968;5.366;2023-06-19T01:42:20;21.10;99.90
26623;DHT22;14254;50.968;5.366;2023-06-19T01:44:46;21.00;99.90
26623;DHT22;14254;50.968;5.366;2023-06-19T01:47:12;20.90;99.90
26623;DHT22;14254;50.968;5.366;2023-06-19T01:49:38;20.90;99.90
26623;DHT22;14254;50.968;5.366;2023-06-19T01:52:05;20.90;99.90
26623;DHT22;14254;50.968;5.366;2023-06-19T01:54:30;20.80;99.90
26623;DHT22;14254;50.968;5.366;2023-06-19T01:56:57;20.80;99.90
26623;DHT22;14254;50.968;5.366;2023-06-19T01:59:23;20.70;99.90
26623;DHT22;14254;50.968;5.366;2023-06-19T02:01:48;20.70;99.90
26623;DHT22;14254;50.968;5.366;2023-06-19T02:04:14;20.80;99.90
26623;DHT22;14254;50.968;5.366;2023-06-19T02:06:40;20.70;99.90
26623;DHT22;14254;50.968;5.366;2023-06-19T02:09:05;20.50;99.90
26623;DHT22;14254;50.968;5.366;2023-06-19T02:11:32;20.40;99.90
26623;DHT22;14254;50.968;5.366;2023-06-19T02:13:58;20.40;99.90
26623;DHT22;14254;50.968;5.366;2023-06-19T02:16:24;20.20;99.90
26623;DHT22;14254;50.968;5.366;2023-06-19T02:18:49;20.00;99.90
26623;DHT22;14254;50.968;5.366;2023-06-19T02:21:15;20.00;99.90
26623;DHT22;14254;50.968;5.366;2023-06-19T02:23:40;19.90;99.90
26623;DHT22;14254;50.968;5.366;2023-06-19T02:26:06;19.80;99.90
26623;DHT22;14254;50.968;5.366;2023-06-19T02:28:32;19.70;99.90
26623;DHT22;14254;50.968;5.366;2023-06-19T02:30:57;19.80;99.90
26623;DHT22;14254;50.968;5.366;2023-06-19T02:33:23;19.80;99.90
26623;DHT22;14254;50.968;5.366;2023-06-19T02:35:49;19.70;99.90
26623;DHT22;14254;50.968;5.366;2023-06-19T02:38:14;19.80;99.90
26623;DHT22;14254;50.968;5.366;2023-06-19T02:40:40;19.70;99.90
26623;DHT22;14254;50.968;5.366;2023-06-19T02:43:06;19.80;99.90
26623;DHT22;14254;50.968;5.366;2023-06-19T02:45:31;19.80;99.90
26623;DHT22;14254;50.968;5.366;2023-06-19T02:47:57;19.70;99.90
26623;DHT22;14254;50.968;5.366;2023-06-19T02:50:23;19.70;99.90
26623;DHT22;14254;50.968;5.366;2023-06-19T02:52:48;19.60;99.90
26623;DHT22;14254;50.968;5.366;2023-06-19T02:55:14;19.60;99.90
26623;DHT22;14254;50.968;5.366;2023-06-19T02:57:40;19.50;99.90
26623;DHT22;14254;50.968;5.366;2023-06-19T03:00:06;19.50;99.90
26623;DHT22;14254;50.968;5.366;2023-06-19T03:02:32;19.60;99.90
26623;DHT22;14254;50.968;5.366;2023-06-19T03:04:58;19.50;99.90
26623;DHT22;14254;50.968;5.366;2023-06-19T03:07:23;19.50;99.90
26623;DHT22;14254;50.968;5.366;2023-06-19T03:09:54;19.50;99.90
26623;DHT22;14254;50.968;5.366;2023-06-19T03:12:19;19.40;99.90
26623;DHT22;14254;50.968;5.366;2023-06-19T03:14:45;19.50;99.90
26623;DHT22;14254;50.968;5.366;2023-06-19T03:17:12;19.60;99.90
26623;DHT22;14254;50.968;5.366;2023-06-19T03:19:37;19.70;99.90
26623;DHT22;14254;50.968;5.366;2023-06-19T03:22:03;19.70;99.90
26623;DHT22;14254;50.968;5.366;2023-06-19T03:24:29;19.70;99.90
26623;DHT22;14254;50.968;5.366;2023-06-19T03:26:54;19.70;99.90
26623;DHT22;14254;50.968;5.366;2023-06-19T03:29:20;19.70;99.90
26623;DHT22;14254;50.968;5.366;2023-06-19T03:31:46;19.70;99.90
26623;DHT22;14254;50.968;5.366;2023-06-19T03:34:12;19.80;99.90
26623;DHT22;14254;50.968;5.366;2023-06-19T03:36:37;19.80;99.90
26623;DHT22;14254;50.968;5.366;2023-06-19T03:39:04;19.90;99.90
26623;DHT22;14254;50.968;5.366;2023-06-19T03:41:29;19.70;99.90
26623;DHT22;14254;50.968;5.366;2023-06-19T03:43:55;19.70;99.90
26623;DHT22;14254;50.968;5.366;2023-06-19T03:46:21;19.70;99.90
26623;DHT22;14254;50.968;5.366;2023-06-19T03:48:46;19.70;99.90
26623;DHT22;14254;50.968;5.366;2023-06-19T03:51:12;19.70;99.90
26623;DHT22;14254;50.968;5.366;2023-06-19T03:53:38;19.80;99.90
26623;DHT22;14254;50.968;5.366;2023-06-19T03:56:03;19.90;99.90
26623;DHT22;14254;50.968;5.366;2023-06-19T03:58:29;19.90;99.90
26623;DHT22;14254;50.968;5.366;2023-06-19T04:00:55;20.00;99.90
26623;DHT22;14254;50.968;5.366;2023-06-19T04:03:20;20.00;99.90
26623;DHT22;14254;50.968;5.366;2023-06-19T04:05:46;20.10;99.90
26623;DHT22;14254;50.968;5.366;2023-06-19T04:08:12;20.30;99.90
26623;DHT22;14254;50.968;5.366;2023-06-19T04:10:37;20.20;99.90
26623;DHT22;14254;50.968;5.366;2023-06-19T04:13:03;20.20;99.90
26623;DHT22;14254;50.968;5.366;2023-06-19T04:15:29;20.30;99.90
26623;DHT22;14254;50.968;5.366;2023-06-19T04:17:57;20.40;99.90
26623;DHT22;14254;50.968;5.366;2023-06-19T04:20:23;20.40;99.90
26623;DHT22;14254;50.968;5.366;2023-06-19T04:22:48;20.30;99.90
26623;DHT22;14254;50.968;5.366;2023-06-19T04:25:14;20.10;99.90
26623;DHT22;14254;50.968;5.366;2023-06-19T04:27:40;19.80;99.90
26623;DHT22;14254;50.968;5.366;2023-06-19T04:30:06;19.80;99.90
26623;DHT22;14254;50.968;5.366;2023-06-19T04:32:33;19.70;99.90
26623;DHT22;14254;50.968;5.366;2023-06-19T04:35:00;19.60;99.90
26623;DHT22;14254;50.968;5.366;2023-06-19T04:37:25;19.60;99.90
26623;DHT22;14254;50.968;5.366;2023-06-19T04:39:51;19.60;99.90
26623;DHT22;14254;50.968;5.366;2023-06-19T04:42:17;19.50;99.90
26623;DHT22;14254;50.968;5.366;2023-06-19T04:44:47;19.40;99.90
26623;DHT22;14254;50.968;5.366;2023-06-19T04:47:14;19.30;99.90
26623;DHT22;14254;50.968;5.366;2023-06-19T04:49:41;19.20;99.90
26623;DHT22;14254;50.968;5.366;2023-06-19T04:52:06;19.10;99.90
26623;DHT22;14254;50.968;5.366;2023-06-19T04:54:32;19.10;99.90
26623;DHT22;14254;50.968;5.366;2023-06-19T04:56:58;19.10;99.90
26623;DHT22;14254;50.968;5.366;2023-06-19T04:59:24;19.00;99.90
26623;DHT22;14254;50.968;5.366;2023-06-19T05:01:50;19.00;99.90
26623;DHT22;14254;50.968;5.366;2023-06-19T05:04:22;19.00;99.90
26623;DHT22;14254;50.968;5.366;2023-06-19T05:06:49;19.00;99.90
26623;DHT22;14254;50.968;5.366;2023-06-19T05:09:14;18.90;99.90
26623;DHT22;14254;50.968;5.366;2023-06-19T05:11:40;18.90;99.90
26623;DHT22;14254;50.968;5.366;2023-06-19T05:14:06;19.00;99.90
26623;DHT22;14254;50.968;5.366;2023-06-19T05:16:33;19.00;99.90
26623;DHT22;14254;50.968;5.366;2023-06-19T05:18:58;19.10;99.90
26623;DHT22;14254;50.968;5.366;2023-06-19T05:21:24;19.10;99.90
26623;DHT22;14254;50.968;5.366;2023-06-19T05:23:50;19.10;99.90
26623;DHT22;14254;50.968;5.366;2023-06-19T05:26:18;19.10;99.90
26623;DHT22;14254;50.968;5.366;2023-06-19T05:28:44;19.00;99.90
26623;DHT22;14254;50.968;5.366;2023-06-19T05:31:09;19.10;99.90
26623;DHT22;14254;50.968;5.366;2023-06-19T05:33:35;19.10;99.90
26623;DHT22;14254;50.968;5.366;2023-06-19T05:36:01;19.20;99.90
26623;DHT22;14254;50.968;5.366;2023-06-19T05:38:27;19.20;99.90
26623;DHT22;14254;50.968;5.366;2023-06-19T05:40:56;19.20;99.90
26623;DHT22;14254;50.968;5.366;2023-06-19T05:43:21;19.20;99.90
26623;DHT22;14254;50.968;5.366;2023-06-19T05:45:48;19.30;99.90
26623;DHT22;14254;50.968;5.366;2023-06-19T05:48:13;19.30;99.90
26623;DHT22;14254;50.968;5.366;2023-06-19T05:50:39;19.30;99.90
26623;DHT22;14254;50.968;5.366;2023-06-19T05:53:05;19.30;99.90
26623;DHT22;14254;50.968;5.366;2023-06-19T05:55:32;19.50;99.90
26623;DHT22;14254;50.968;5.366;2023-06-19T05:57:58;19.40;99.90
26623;DHT22;14254;50.968;5.366;2023-06-19T06:00:24;19.40;99.90
26623;DHT22;14254;50.968;5.366;2023-06-19T06:02:50;19.50;99.90
26623;DHT22;14254;50.968;5.366;2023-06-19T06:05:17;19.50;99.90
26623;DHT22;14254;50.968;5.366;2023-06-19T06:07:46;19.70;99.90
26623;DHT22;14254;50.968;5.366;2023-06-19T06:10:11;19.70;99.90
26623;DHT22;14254;50.968;5.366;2023-06-19T06:12:37;19.70;99.90
26623;DHT22;14254;50.968;5.366;2023-06-19T06:15:04;19.80;99.90
26623;DHT22;14254;50.968;5.366;2023-06-19T06:17:31;19.90;99.90
26623;DHT22;14254;50.968;5.366;2023-06-19T06:19:57;20.00;99.90
26623;DHT22;14254;50.968;5.366;2023-06-19T06:22:22;20.10;99.90
26623;DHT22;14254;50.968;5.366;2023-06-19T06:24:48;20.10;99.90
26623;DHT22;14254;50.968;5.366;2023-06-19T06:27:14;20.10;99.90
26623;DHT22;14254;50.968;5.366;2023-06-19T06:29:39;20.40;99.90
26623;DHT22;14254;50.968;5.366;2023-06-19T06:32:07;20.50;99.90
26623;DHT22;14254;50.968;5.366;2023-06-19T06:34:35;20.50;99.90
26623;DHT22;14254;50.968;5.366;2023-06-19T06:37:01;20.40;99.90
26623;DHT22;14254;50.968;5.366;2023-06-19T06:39:27;20.40;99.90
26623;DHT22;14254;50.968;5.366;2023-06-19T06:41:53;20.50;99.90
26623;DHT22;14254;50.968;5.366;2023-06-19T06:44:19;20.60;99.90
26623;DHT22;14254;50.968;5.366;2023-06-19T06:46:44;20.70;99.90
26623;DHT22;14254;50.968;5.366;2023-06-19T06:49:11;20.70;99.90
26623;DHT22;14254;50.968;5.366;2023-06-19T06:51:36;20.90;99.90
26623;DHT22;14254;50.968;5.366;2023-06-19T06:54:02;21.10;99.90
26623;DHT22;14254;50.968;5.366;2023-06-19T06:56:28;21.30;99.90
26623;DHT22;14254;50.968;5.366;2023-06-19T06:58:53;21.40;99.90
26623;DHT22;14254;50.968;5.366;2023-06-19T07:01:19;21.30;99.90
26623;DHT22;14254;50.968;5.366;2023-06-19T07:03:45;21.30;99.90
26623;DHT22;14254;50.968;5.366;2023-06-19T07:06:10;21.30;99.90
26623;DHT22;14254;50.968;5.366;2023-06-19T07:08:36;21.40;99.90
26623;DHT22;14254;50.968;5.366;2023-06-19T07:11:02;21.50;99.90
26623;DHT22;14254;50.968;5.366;2023-06-19T07:13:28;21.70;99.90
26623;DHT22;14254;50.968;5.366;2023-06-19T07:15:56;21.80;99.90
26623;DHT22;14254;50.968;5.366;2023-06-19T07:18:23;21.90;99.90
26623;DHT22;14254;50.968;5.366;2023-06-19T07:20:49;21.90;99.90
26623;DHT22;14254;50.968;5.366;2023-06-19T07:23:15;22.00;99.90
26623;DHT22;14254;50.968;5.366;2023-06-19T07:25:41;22.00;99.90
26623;DHT22;14254;50.968;5.366;2023-06-19T07:28:06;22.20;99.90
26623;DHT22;14254;50.968;5.366;2023-06-19T07:30:32;22.20;99.90
26623;DHT22;14254;50.968;5.366;2023-06-19T07:32:58;22.20;99.90
26623;DHT22;14254;50.968;5.366;2023-06-19T07:35:23;22.20;99.90
26623;DHT22;14254;50.968;5.366;2023-06-19T07:37:49;22.30;99.90
26623;DHT22;14254;50.968;5.366;2023-06-19T07:40:15;22.40;99.90
26623;DHT22;14254;50.968;5.366;2023-06-19T07:42:41;22.50;99.90
26623;DHT22;14254;50.968;5.366;2023-06-19T07:45:07;22.60;99.90
26623;DHT22;14254;50.968;5.366;2023-06-19T07:47:33;22.70;99.90
26623;DHT22;14254;50.968;5.366;2023-06-19T07:49:58;22.80;99.90
26623;DHT22;14254;50.968;5.366;2023-06-19T07:52:24;22.80;99.90
26623;DHT22;14254;50.968;5.366;2023-06-19T07:54:57;22.70;99.90
26623;DHT22;14254;50.968;5.366;2023-06-19T07:57:24;22.70;99.90
26623;DHT22;14254;50.968;5.366;2023-06-19T07:59:50;22.80;99.90
26623;DHT22;14254;50.968;5.366;2023-06-19T08:02:17;23.20;99.90
26623;DHT22;14254;50.968;5.366;2023-06-19T08:04:43;23.30;99.90
26623;DHT22;14254;50.968;5.366;2023-06-19T08:07:08;23.30;99.90
26623;DHT22;14254;50.968;5.366;2023-06-19T08:09:34;23.30;99.90
26623;DHT22;14254;50.968;5.366;2023-06-19T08:12:02;23.40;99.90
26623;DHT22;14254;50.968;5.366;2023-06-19T08:14:27;23.50;99.90
26623;DHT22;14254;50.968;5.366;2023-06-19T08:16:54;23.50;99.90
26623;DHT22;14254;50.968;5.366;2023-06-19T08:19:19;23.40;99.90
26623;DHT22;14254;50.968;5.366;2023-06-19T08:21:45;23.50;99.90
26623;DHT22;14254;50.968;5.366;2023-06-19T08:24:11;23.70;99.90
26623;DHT22;14254;50.968;5.366;2023-06-19T08:26:36;23.70;99.90
26623;DHT22;14254;50.968;5.366;2023-06-19T08:29:02;23.60;99.90
26623;DHT22;14254;50.968;5.366;2023-06-19T08:31:28;23.80;99.90
26623;DHT22;14254;50.968;5.366;2023-06-19T08:33:55;24.10;99.90
26623;DHT22;14254;50.968;5.366;2023-06-19T08:36:21;24.60;99.90
26623;DHT22;14254;50.968;5.366;2023-06-19T08:38:46;24.90;99.90
26623;DHT22;14254;50.968;5.366;2023-06-19T08:41:17;25.20;99.90
26623;DHT22;14254;50.968;5.366;2023-06-19T08:43:44;25.30;99.90
26623;DHT22;14254;50.968;5.366;2023-06-19T08:48:37;25.00;99.90
26623;DHT22;14254;50.968;5.366;2023-06-19T08:51:06;24.80;99.90
26623;DHT22;14254;50.968;5.366;2023-06-19T08:53:43;24.70;99.90
26623;DHT22;14254;50.968;5.366;2023-06-19T08:56:09;24.60;99.90
26623;DHT22;14254;50.968;5.366;2023-06-19T08:58:35;24.30;99.90
26623;DHT22;14254;50.968;5.366;2023-06-19T09:01:01;23.90;99.90
26623;DHT22;14254;50.968;5.366;2023-06-19T09:03:26;23.90;99.90
26623;DHT22;14254;50.968;5.366;2023-06-19T09:05:52;24.20;99.90
26623;DHT22;14254;50.968;5.366;2023-06-19T09:08:21;24.50;99.90
26623;DHT22;14254;50.968;5.366;2023-06-19T09:11:18;24.40;99.90
26623;DHT22;14254;50.968;5.366;2023-06-19T09:13:43;24.20;99.90
26623;DHT22;14254;50.968;5.366;2023-06-19T09:16:09;23.90;99.90
26623;DHT22;14254;50.968;5.366;2023-06-19T09:18:46;23.90;99.90
26623;DHT22;14254;50.968;5.366;2023-06-19T09:21:20;24.10;99.90
26623;DHT22;14254;50.968;5.366;2023-06-19T09:23:48;24.10;99.90
26623;DHT22;14254;50.968;5.366;2023-06-19T09:26:17;24.20;99.90
26623;DHT22;14254;50.968;5.366;2023-06-19T09:28:45;24.20;99.90
26623;DHT22;14254;50.968;5.366;2023-06-19T09:31:11;24.20;99.90
26623;DHT22;14254;50.968;5.366;2023-06-19T09:33:40;24.30;99.90
26623;DHT22;14254;50.968;5.366;2023-06-19T09:36:06;24.30;99.90
26623;DHT22;14254;50.968;5.366;2023-06-19T09:38:34;24.50;99.90
26623;DHT22;14254;50.968;5.366;2023-06-19T09:41:01;24.60;99.90
26623;DHT22;14254;50.968;5.366;2023-06-19T09:46:00;24.60;99.90
26623;DHT22;14254;50.968;5.366;2023-06-19T09:48:29;24.50;99.90
26623;DHT22;14254;50.968;5.366;2023-06-19T09:51:16;24.30;99.90
26623;DHT22;14254;50.968;5.366;2023-06-19T09:53:44;24.50;99.90
26623;DHT22;14254;50.968;5.366;2023-06-19T09:56:12;24.90;99.90
26623;DHT22;14254;50.968;5.366;2023-06-19T09:58:38;25.00;99.90
26623;DHT22;14254;50.968;5.366;2023-06-19T10:01:04;25.20;99.90
26623;DHT22;14254;50.968;5.366;2023-06-19T10:03:33;25.30;99.90
26623;DHT22;14254;50.968;5.366;2023-06-19T10:06:01;25.70;99.90
26623;DHT22;14254;50.968;5.366;2023-06-19T10:08:32;26.00;99.90
26623;DHT22;14254;50.968;5.366;2023-06-19T10:11:03;26.10;99.90
26623;DHT22;14254;50.968;5.366;2023-06-19T10:13:34;26.10;99.90
26623;DHT22;14254;50.968;5.366;2023-06-19T10:16:00;26.10;99.90
26623;DHT22;14254;50.968;5.366;2023-06-19T10:18:26;26.20;99.90
26623;DHT22;14254;50.968;5.366;2023-06-19T10:20:54;26.50;99.90
26623;DHT22;14254;50.968;5.366;2023-06-19T10:23:21;26.60;99.90
26623;DHT22;14254;50.968;5.366;2023-06-19T10:25:59;26.70;99.90
26623;DHT22;14254;50.968;5.366;2023-06-19T10:28:32;26.50;99.90
26623;DHT22;14254;50.968;5.366;2023-06-19T10:31:06;26.40;99.90
26623;DHT22;14254;50.968;5.366;2023-06-19T10:33:34;26.40;99.90
26623;DHT22;14254;50.968;5.366;2023-06-19T10:36:17;26.20;99.90
26623;DHT22;14254;50.968;5.366;2023-06-19T10:38:43;26.50;99.90
26623;DHT22;14254;50.968;5.366;2023-06-19T10:41:23;26.80;99.90
26623;DHT22;14254;50.968;5.366;2023-06-19T10:44:02;27.30;99.90
26623;DHT22;14254;50.968;5.366;2023-06-19T10:46:36;27.10;99.90
26623;DHT22;14254;50.968;5.366;2023-06-19T10:49:02;26.90;99.90
26623;DHT22;14254;50.968;5.366;2023-06-19T10:51:37;27.10;99.90
26623;DHT22;14254;50.968;5.366;2023-06-19T10:54:03;27.10;99.90
26623;DHT22;14254;50.968;5.366;2023-06-19T10:56:29;27.20;99.90
26623;DHT22;14254;50.968;5.366;2023-06-19T10:59:04;27.10;99.90
26623;DHT22;14254;50.968;5.366;2023-06-19T11:01:42;27.00;99.90
26623;DHT22;14254;50.968;5.366;2023-06-19T11:04:10;26.90;99.90
26623;DHT22;14254;50.968;5.366;2023-06-19T11:06:37;26.90;99.90
26623;DHT22;14254;50.968;5.366;2023-06-19T11:09:04;26.90;99.90
26623;DHT22;14254;50.968;5.366;2023-06-19T11:11:46;27.00;99.90
26623;DHT22;14254;50.968;5.366;2023-06-19T11:14:13;27.10;99.40
26623;DHT22;14254;50.968;5.366;2023-06-19T11:16:48;27.20;99.10
26623;DHT22;14254;50.968;5.366;2023-06-19T11:19:19;26.80;99.90
26623;DHT22;14254;50.968;5.366;2023-06-19T11:21:49;27.10;98.70
26623;DHT22;14254;50.968;5.366;2023-06-19T11:24:15;27.10;99.50
26623;DHT22;14254;50.968;5.366;2023-06-19T11:26:46;27.10;99.90
26623;DHT22;14254;50.968;5.366;2023-06-19T11:29:25;27.20;99.50
26623;DHT22;14254;50.968;5.366;2023-06-19T11:32:08;27.40;99.00
26623;DHT22;14254;50.968;5.366;2023-06-19T11:34:35;27.60;97.90
26623;DHT22;14254;50.968;5.366;2023-06-19T11:37:22;28.10;95.90
26623;DHT22;14254;50.968;5.366;2023-06-19T11:39:49;28.70;95.70
26623;DHT22;14254;50.968;5.366;2023-06-19T11:42:15;30.10;93.40
26623;DHT22;14254;50.968;5.366;2023-06-19T11:47:20;34.20;83.10
26623;DHT22;14254;50.968;5.366;2023-06-19T11:49:50;33.80;82.70
26623;DHT22;14254;50.968;5.366;2023-06-19T11:52:16;33.60;82.70
26623;DHT22;14254;50.968;5.366;2023-06-19T11:54:42;34.90;80.20
26623;DHT22;14254;50.968;5.366;2023-06-19T11:57:09;35.50;72.70
26623;DHT22;14254;50.968;5.366;2023-06-19T11:59:41;35.80;71.70
26623;DHT22;14254;50.968;5.366;2023-06-19T12:02:08;36.80;69.30
26623;DHT22;14254;50.968;5.366;2023-06-19T12:04:34;38.00;64.80
26623;DHT22;14254;50.968;5.366;2023-06-19T12:07:01;37.70;63.70
26623;DHT22;14254;50.968;5.366;2023-06-19T12:09:26;36.90;65.90
26623;DHT22;14254;50.968;5.366;2023-06-19T12:11:53;35.90;63.20
26623;DHT22;14254;50.968;5.366;2023-06-19T12:14:19;36.30;63.10
26623;DHT22;14254;50.968;5.366;2023-06-19T12:16:48;37.60;61.40
26623;DHT22;14254;50.968;5.366;2023-06-19T12:19:14;37.70;59.10
26623;DHT22;14254;50.968;5.366;2023-06-19T12:21:39;38.30;59.20
26623;DHT22;14254;50.968;5.366;2023-06-19T12:24:06;37.90;58.80
26623;DHT22;14254;50.968;5.366;2023-06-19T12:26:33;38.40;59.00
26623;DHT22;14254;50.968;5.366;2023-06-19T12:29:02;39.60;57.10
26623;DHT22;14254;50.968;5.366;2023-06-19T12:31:29;38.70;56.70
26623;DHT22;14254;50.968;5.366;2023-06-19T12:33:55;38.00;57.50
26623;DHT22;14254;50.968;5.366;2023-06-19T12:36:20;39.00;56.70
26623;DHT22;14254;50.968;5.366;2023-06-19T12:38:46;38.10;55.40
26623;DHT22;14254;50.968;5.366;2023-06-19T12:41:13;37.70;57.40
26623;DHT22;14254;50.968;5.366;2023-06-19T12:43:39;37.20;57.30
26623;DHT22;14254;50.968;5.366;2023-06-19T12:46:04;37.40;59.30
26623;DHT22;14254;50.968;5.366;2023-06-19T12:48:30;38.30;57.50
26623;DHT22;14254;50.968;5.366;2023-06-19T12:50:57;37.80;58.40
26623;DHT22;14254;50.968;5.366;2023-06-19T12:53:22;39.10;55.90
26623;DHT22;14254;50.968;5.366;2023-06-19T12:55:52;39.90;54.60
26623;DHT22;14254;50.968;5.366;2023-06-19T12:58:19;40.10;54.50
26623;DHT22;14254;50.968;5.366;2023-06-19T13:00:44;39.70;53.70
26623;DHT22;14254;50.968;5.366;2023-06-19T13:03:10;40.10;53.40
26623;DHT22;14254;50.968;5.366;2023-06-19T13:05:36;41.30;51.90
26623;DHT22;14254;50.968;5.366;2023-06-19T13:08:01;41.40;51.10
26623;DHT22;14254;50.968;5.366;2023-06-19T13:10:27;41.00;51.10
26623;DHT22;14254;50.968;5.366;2023-06-19T13:12:53;40.10;53.20
26623;DHT22;14254;50.968;5.366;2023-06-19T13:15:18;40.00;50.80
26623;DHT22;14254;50.968;5.366;2023-06-19T13:17:45;40.50;50.60
26623;DHT22;14254;50.968;5.366;2023-06-19T13:20:11;40.60;51.20
26623;DHT22;14254;50.968;5.366;2023-06-19T13:22:37;40.90;50.90
26623;DHT22;14254;50.968;5.366;2023-06-19T13:25:03;41.30;51.00
26623;DHT22;14254;50.968;5.366;2023-06-19T13:27:28;40.10;52.40
26623;DHT22;14254;50.968;5.366;2023-06-19T13:29:54;40.80;52.30
26623;DHT22;14254;50.968;5.366;2023-06-19T13:32:20;40.50;50.50
26623;DHT22;14254;50.968;5.366;2023-06-19T13:34:46;40.70;50.30
26623;DHT22;14254;50.968;5.366;2023-06-19T13:37:12;39.80;51.90
26623;DHT22;14254;50.968;5.366;2023-06-19T13:39:37;40.70;49.90
26623;DHT22;14254;50.968;5.366;2023-06-19T13:42:05;42.40;49.10
26623;DHT22;14254;50.968;5.366;2023-06-19T13:44:31;42.30;47.70
26623;DHT22;14254;50.968;5.366;2023-06-19T13:46:56;42.10;47.90
26623;DHT22;14254;50.968;5.366;2023-06-19T13:49:22;43.10;46.70
26623;DHT22;14254;50.968;5.366;2023-06-19T13:51:48;42.40;46.60
26623;DHT22;14254;50.968;5.366;2023-06-19T13:54:13;43.10;46.40
26623;DHT22;14254;50.968;5.366;2023-06-19T13:56:39;43.50;46.30
26623;DHT22;14254;50.968;5.366;2023-06-19T13:59:06;43.60;45.40
26623;DHT22;14254;50.968;5.366;2023-06-19T14:01:32;43.30;46.00
26623;DHT22;14254;50.968;5.366;2023-06-19T14:03:58;44.50;46.00
26623;DHT22;14254;50.968;5.366;2023-06-19T14:06:27;43.00;46.70
26623;DHT22;14254;50.968;5.366;2023-06-19T14:08:53;43.40;46.70
26623;DHT22;14254;50.968;5.366;2023-06-19T14:11:19;44.40;46.50
26623;DHT22;14254;50.968;5.366;2023-06-19T14:13:45;45.40;44.50
26623;DHT22;14254;50.968;5.366;2023-06-19T14:16:10;45.60;43.30
26623;DHT22;14254;50.968;5.366;2023-06-19T14:18:36;44.90;43.40
26623;DHT22;14254;50.968;5.366;2023-06-19T14:21:04;44.60;43.90
26623;DHT22;14254;50.968;5.366;2023-06-19T14:23:30;44.50;43.60
26623;DHT22;14254;50.968;5.366;2023-06-19T14:25:56;42.80;44.60
26623;DHT22;14254;50.968;5.366;2023-06-19T14:28:22;42.90;44.40
26623;DHT22;14254;50.968;5.366;2023-06-19T14:30:47;42.90;44.80
26623;DHT22;14254;50.968;5.366;2023-06-19T14:33:13;42.70;45.00
26623;DHT22;14254;50.968;5.366;2023-06-19T14:35:42;42.00;46.30
26623;DHT22;14254;50.968;5.366;2023-06-19T14:38:12;42.90;46.90
26623;DHT22;14254;50.968;5.366;2023-06-19T14:40:38;44.20;45.20
26623;DHT22;14254;50.968;5.366;2023-06-19T14:43:03;45.30;43.00
26623;DHT22;14254;50.968;5.366;2023-06-19T14:45:30;44.20;43.80
26623;DHT22;14254;50.968;5.366;2023-06-19T14:47:55;43.20;45.00
26623;DHT22;14254;50.968;5.366;2023-06-19T14:50:21;43.90;45.20
26623;DHT22;14254;50.968;5.366;2023-06-19T14:52:47;45.40;45.40
26623;DHT22;14254;50.968;5.366;2023-06-19T14:55:12;45.70;42.90
26623;DHT22;14254;50.968;5.366;2023-06-19T14:57:38;45.20;43.90
26623;DHT22;14254;50.968;5.366;2023-06-19T15:00:04;46.10;43.00
26623;DHT22;14254;50.968;5.366;2023-06-19T15:02:31;46.30;42.50
26623;DHT22;14254;50.968;5.366;2023-06-19T15:04:56;46.30;42.50
26623;DHT22;14254;50.968;5.366;2023-06-19T15:07:22;46.90;41.40
26623;DHT22;14254;50.968;5.366;2023-06-19T15:09:48;48.00;41.60
26623;DHT22;14254;50.968;5.366;2023-06-19T15:12:13;48.30;40.20
26623;DHT22;14254;50.968;5.366;2023-06-19T15:14:39;48.80;39.40
26623;DHT22;14254;50.968;5.366;2023-06-19T15:17:06;47.60;40.50
26623;DHT22;14254;50.968;5.366;2023-06-19T15:19:32;48.20;40.70
26623;DHT22;14254;50.968;5.366;2023-06-19T15:21:58;49.00;40.00
26623;DHT22;14254;50.968;5.366;2023-06-19T15:24:23;47.80;39.80
26623;DHT22;14254;50.968;5.366;2023-06-19T15:26:49;47.80;39.70
26623;DHT22;14254;50.968;5.366;2023-06-19T15:29:15;47.40;40.10
26623;DHT22;14254;50.968;5.366;2023-06-19T15:31:41;46.70;40.30
26623;DHT22;14254;50.968;5.366;2023-06-19T15:34:06;44.60;41.50
26623;DHT22;14254;50.968;5.366;2023-06-19T15:36:32;41.90;43.60
26623;DHT22;14254;50.968;5.366;2023-06-19T15:38:58;39.50;46.80